Time;durP1;ratioP1;P1;durP2;ratioP2;P2;SDS_P1;SDS_P2;PMS_P1;PMS_P2;Temp;Humidity;BMP_temperature;BMP_pressure;BME280_temperature;BME280_humidity;BME280_pressure;Samples;Min_cycle;Max_cycle;Signal;HPM_P1;HPM_P2
2021/09/24 00:00:33;;;;;;;0.70;0.60;;;;;;;17.63;100.00;-21160.09;6226925;22;20412;-75
2021/09/24 00:03:06;;;;;;;0.70;0.60;;;;;;;17.58;100.00;-21158.72;6226550;22;20723;-74
2021/09/24 00:05:40;;;;;;;0.70;0.70;;;;;;;17.72;100.00;-21162.56;6253496;22;20421;-74
2021/09/24 00:08:20;;;;;;;0.70;0.60;;;;;;;17.70;100.00;-21162.03;6279527;22;20455;-75
2021/09/24 00:10:51;;;;;;;0.73;0.70;;;;;;;17.59;100.00;-21159.13;6277928;22;20364;-75
2021/09/24 00:13:40;;;;;;;0.70;0.60;;;;;;;17.75;100.00;-21163.25;6251692;22;20900;-75
2021/09/24 00:16:22;;;;;;;0.80;0.70;;;;;;;17.81;100.00;-21164.91;6252031;22;20437;-75
2021/09/24 00:18:54;;;;;;;0.70;0.60;;;;;;;17.77;100.00;-21163.81;6278974;22;20442;-75
2021/09/24 00:21:26;;;;;;;0.70;0.70;;;;;;;17.74;100.00;-21163.13;6226367;22;20415;-75
2021/09/24 00:23:57;;;;;;;0.80;0.70;;;;;;;17.77;100.00;-21163.81;6250156;22;20525;-74
2021/09/24 00:26:35;;;;;;;0.90;0.80;;;;;;;17.70;100.00;-21161.88;6250127;22;20410;-75
2021/09/24 00:29:10;;;;;;;1.00;0.90;;;;;;;17.63;100.00;-21160.25;6251039;22;20407;-75
2021/09/24 00:31:44;;;;;;;0.70;0.60;;;;;;;17.66;100.00;-21160.94;6250029;22;20423;-75
2021/09/24 00:34:15;;;;;;;1.00;0.90;;;;;;;17.68;100.00;-21161.47;6250986;22;20435;-74
2021/09/24 00:36:49;;;;;;;0.70;0.70;;;;;;;17.68;100.00;-21161.47;6252138;22;20854;-75
2021/09/24 00:39:23;;;;;;;1.07;0.97;;;;;;;17.68;100.00;-21161.34;6277423;22;20814;-75
2021/09/24 00:42:01;;;;;;;1.20;1.10;;;;;;;17.69;100.00;-21161.75;6227215;22;20467;-74
2021/09/24 00:44:47;;;;;;;0.70;0.60;;;;;;;17.62;100.00;-21159.81;6250818;22;20455;-74
2021/09/24 00:47:22;;;;;;;0.70;0.60;;;;;;;17.71;100.00;-21162.28;6251992;22;20367;-74
2021/09/24 00:49:53;;;;;;;0.77;0.73;;;;;;;17.59;100.00;-21159.13;6226179;22;20412;-75
2021/09/24 00:52:32;;;;;;;0.80;0.70;;;;;;;17.62;100.00;-21159.81;6226836;22;20421;-74
2021/09/24 00:55:12;;;;;;;0.70;0.60;;;;;;;17.69;100.00;-21161.63;6276544;22;20437;-75
2021/09/24 00:57:49;;;;;;;0.70;0.60;;;;;;;17.61;100.00;-21159.56;6250041;22;20409;-75
2021/09/24 01:00:27;;;;;;;0.70;0.60;;;;;;;17.65;100.00;-21160.66;6249637;22;20909;-75
2021/09/24 01:03:00;;;;;;;0.70;0.60;;;;;;;17.61;100.00;-21159.56;6250103;22;20416;-74
2021/09/24 01:05:32;;;;;;;0.70;0.60;;;;;;;17.64;100.00;-21160.38;6226799;22;20374;-75
2021/09/24 01:08:14;;;;;;;0.70;0.60;;;;;;;17.56;100.00;-21158.19;6250137;22;20423;-75
2021/09/24 01:10:50;;;;;;;0.70;0.60;;;;;;;17.69;100.00;-21161.63;6225784;22;20881;-74
2021/09/24 01:13:20;;;;;;;0.70;0.70;;;;;;;17.63;100.00;-21160.25;6277459;22;20737;-74
2021/09/24 01:15:54;;;;;;;0.70;0.67;;;;;;;17.59;100.00;-21159.00;6250296;22;20951;-74
2021/09/24 01:18:28;;;;;;;0.70;0.60;;;;;;;17.60;100.00;-21159.28;6250122;22;20416;-74
2021/09/24 01:21:02;;;;;;;1.00;0.90;;;;;;;17.60;100.00;-21159.41;6249995;22;20957;-75
2021/09/24 01:23:36;;;;;;;0.70;0.60;;;;;;;17.57;100.00;-21158.59;6276770;22;20433;-74
2021/09/24 01:26:12;;;;;;;0.70;0.60;;;;;;;17.51;100.00;-21156.81;6250356;22;20402;-74
2021/09/24 01:28:44;;;;;;;0.70;0.60;;;;;;;17.50;100.00;-21156.53;6250357;22;20737;-74
2021/09/24 01:31:16;;;;;;;0.73;0.70;;;;;;;17.71;100.00;-21162.16;6251067;22;20436;-74
2021/09/24 01:33:47;;;;;;;0.70;0.60;;;;;;;17.72;100.00;-21162.44;6250836;22;20685;-74
2021/09/24 01:36:19;;;;;;;0.80;0.70;;;;;;;17.70;100.00;-21162.03;6277074;22;20429;-74
2021/09/24 01:38:56;;;;;;;0.70;0.70;;;;;;;17.70;100.00;-21162.03;6251018;22;20442;-74
2021/09/24 01:41:27;;;;;;;0.70;0.70;;;;;;;17.57;100.00;-21158.47;6249168;22;20408;-74
2021/09/24 01:44:00;;;;;;;0.70;0.60;;;;;;;17.63;100.00;-21160.09;6249844;22;20920;-74
2021/09/24 01:46:30;;;;;;;0.80;0.70;;;;;;;17.60;100.00;-21159.28;6250226;22;20458;-74
2021/09/24 01:49:04;;;;;;;0.70;0.67;;;;;;;17.73;100.00;-21162.84;6250145;22;20414;-74
2021/09/24 01:51:37;;;;;;;0.70;0.60;;;;;;;17.66;100.00;-21160.78;6225387;22;20410;-74
2021/09/24 01:54:11;;;;;;;0.70;0.60;;;;;;;17.66;100.00;-21160.78;6224499;22;20437;-74
2021/09/24 01:56:49;;;;;;;0.70;0.60;;;;;;;17.55;100.00;-21158.03;6276826;22;20413;-74
2021/09/24 01:59:20;;;;;;;0.70;0.60;;;;;;;17.60;100.00;-21159.41;6249657;22;20805;-73
2021/09/24 02:01:52;;;;;;;0.70;0.60;;;;;;;17.60;100.00;-21159.28;6249925;22;20407;-74
2021/09/24 02:04:24;;;;;;;0.80;0.70;;;;;;;17.67;100.00;-21161.06;6249420;22;20472;-75
2021/09/24 02:06:59;;;;;;;0.70;0.60;;;;;;;17.51;100.00;-21156.81;6277160;22;20886;-75
2021/09/24 02:09:34;;;;;;;0.70;0.60;;;;;;;17.50;100.00;-21156.53;6225006;22;20916;-74
2021/09/24 02:12:08;;;;;;;0.80;0.80;;;;;;;17.48;100.00;-21156.00;6225092;22;20418;-74
2021/09/24 02:14:43;;;;;;;0.70;0.70;;;;;;;17.55;100.00;-21157.91;6249135;22;20410;-74
2021/09/24 02:17:16;;;;;;;0.70;0.60;;;;;;;17.51;100.00;-21156.81;6276652;22;20382;-74
2021/09/24 02:19:53;;;;;;;0.70;0.60;;;;;;;17.45;100.00;-21155.16;6249839;22;20457;-74
2021/09/24 02:22:24;;;;;;;0.73;0.67;;;;;;;17.49;100.00;-21156.41;6250609;22;20371;-74
2021/09/24 02:24:57;;;;;;;0.70;0.60;;;;;;;17.50;100.00;-21156.69;6249816;22;20414;-74
2021/09/24 02:27:29;;;;;;;0.70;0.60;;;;;;;17.58;100.00;-21158.72;6250051;22;20411;-74
2021/09/24 02:30:06;;;;;;;0.70;0.60;;;;;;;17.47;100.00;-21155.72;6276954;22;20369;-74
2021/09/24 02:32:39;;;;;;;0.70;0.60;;;;;;;17.37;100.00;-21153.25;6225027;22;20446;-75
2021/09/24 02:35:10;;;;;;;0.70;0.70;;;;;;;17.41;100.00;-21154.22;6249354;22;20422;-74
2021/09/24 02:37:43;;;;;;;1.37;1.27;;;;;;;17.45;100.00;-21155.16;6249545;22;20947;-74
2021/09/24 02:40:22;;;;;;;0.80;0.70;;;;;;;17.34;100.00;-21152.44;6249790;22;20421;-74
2021/09/24 02:43:04;;;;;;;0.70;0.60;;;;;;;17.33;100.00;-21152.16;6251316;22;20386;-74
2021/09/24 02:45:43;;;;;;;0.70;0.70;;;;;;;17.32;100.00;-21151.88;6276976;22;20366;-74
2021/09/24 02:48:15;;;;;;;0.70;0.60;;;;;;;17.34;100.00;-21152.44;6276215;22;20750;-74
2021/09/24 02:50:46;;;;;;;0.70;0.60;;;;;;;17.41;100.00;-21154.06;6248570;22;20421;-74
2021/09/24 02:53:19;;;;;;;0.80;0.80;;;;;;;17.26;100.00;-21150.22;6250927;22;20424;-74
2021/09/24 02:55:54;;;;;;;0.80;0.77;;;;;;;17.24;100.00;-21149.69;6276246;22;20440;-75
2021/09/24 02:58:25;;;;;;;1.10;1.00;;;;;;;17.28;100.00;-21150.78;6276853;22;20370;-75
2021/09/24 03:00:58;;;;;;;0.70;0.70;;;;;;;17.33;100.00;-21152.00;6249538;22;20414;-75
2021/09/24 03:03:31;;;;;;;0.70;0.70;;;;;;;17.22;100.00;-21149.00;6276611;22;20396;-75
2021/09/24 03:06:03;;;;;;;0.70;0.70;;;;;;;17.28;100.00;-21150.66;6248306;22;20795;-74
2021/09/24 03:08:36;;;;;;;0.80;0.80;;;;;;;17.26;100.00;-21150.22;6275532;22;21013;-75
2021/09/24 03:11:11;;;;;;;1.13;0.93;;;;;;;17.19;100.00;-21148.31;6225228;22;20425;-74
2021/09/24 03:13:46;;;;;;;0.80;0.70;;;;;;;17.22;100.00;-21149.00;6224854;22;20425;-75
2021/09/24 03:16:20;;;;;;;1.60;1.50;;;;;;;17.20;100.00;-21148.59;6276651;22;20438;-75
2021/09/24 03:18:52;;;;;;;0.80;0.80;;;;;;;17.26;100.00;-21150.09;6248232;22;20423;-75
2021/09/24 03:21:22;;;;;;;0.70;0.60;;;;;;;17.23;100.00;-21149.28;6276099;22;20409;-75
2021/09/24 03:23:54;;;;;;;1.43;0.90;;;;;;;17.31;100.00;-21151.59;6249738;22;20408;-75
2021/09/24 03:26:28;;;;;;;0.70;0.70;;;;;;;17.20;100.00;-21148.59;6276017;22;20370;-74
2021/09/24 03:29:05;;;;;;;0.77;0.70;;;;;;;17.25;100.00;-21149.97;6224859;22;20879;-74
2021/09/24 03:31:42;;;;;;;0.70;0.70;;;;;;;17.21;100.00;-21148.84;6225630;22;20425;-74
2021/09/24 03:34:15;;;;;;;0.70;0.60;;;;;;;17.31;100.00;-21151.59;6224911;22;20468;-75
2021/09/24 03:36:50;;;;;;;1.93;1.83;;;;;;;17.24;100.00;-21149.69;6249151;22;20443;-74
2021/09/24 03:39:25;;;;;;;0.70;0.60;;;;;;;17.18;100.00;-21148.03;6249554;22;20410;-75
2021/09/24 03:41:59;;;;;;;0.90;0.90;;;;;;;17.13;100.00;-21146.81;6224204;22;20422;-75
2021/09/24 03:44:29;;;;;;;0.70;0.60;;;;;;;17.15;100.00;-21147.22;6250279;22;20367;-74
2021/09/24 03:47:03;;;;;;;0.70;0.63;;;;;;;17.10;100.00;-21145.84;6249923;22;20381;-74
2021/09/24 03:49:36;;;;;;;0.70;0.60;;;;;;;17.17;100.00;-21147.75;6250023;22;20366;-75
2021/09/24 03:52:06;;;;;;;0.70;0.70;;;;;;;17.21;100.00;-21148.72;6250016;22;20369;-74
2021/09/24 03:54:36;;;;;;;0.70;0.60;;;;;;;17.19;100.00;-21148.31;6276214;22;20885;-74
2021/09/24 03:57:07;;;;;;;1.43;1.33;;;;;;;17.14;100.00;-21146.94;6277123;22;20496;-74
2021/09/24 03:59:42;;;;;;;1.53;1.43;;;;;;;17.01;100.00;-21143.38;6275849;22;20382;-74
2021/09/24 04:02:09;;;;;;;0.80;0.70;;;;;;;17.16;100.00;-21147.50;6223994;22;20404;-74
2021/09/24 04:04:38;;;;;;;0.70;0.60;;;;;;;17.04;100.00;-21144.19;6248120;22;20437;-74
2021/09/24 04:07:06;;;;;;;2.20;2.10;;;;;;;16.93;100.00;-21141.19;6224388;22;20437;-74
2021/09/24 04:09:35;;;;;;;0.70;0.70;;;;;;;17.04;100.00;-21144.19;6224749;22;20968;-74
2021/09/24 04:12:04;;;;;;;0.70;0.60;;;;;;;17.08;100.00;-21145.28;6224969;22;20399;-74
2021/09/24 04:14:34;;;;;;;2.30;1.03;;;;;;;17.10;100.00;-21145.97;6225893;22;20443;-74
2021/09/24 04:17:01;;;;;;;0.70;0.60;;;;;;;17.12;100.00;-21146.38;6225889;22;20438;-74
2021/09/24 04:19:28;;;;;;;1.37;1.27;;;;;;;17.05;100.00;-21144.47;6225013;22;20418;-74
2021/09/24 04:21:57;;;;;;;0.80;0.80;;;;;;;17.03;100.00;-21144.06;6250990;22;20395;-74
2021/09/24 04:24:26;;;;;;;0.80;0.70;;;;;;;17.09;100.00;-21145.72;6251109;22;20408;-74
2021/09/24 04:26:53;;;;;;;1.30;1.03;;;;;;;17.07;100.00;-21145.03;6224856;22;20497;-74
2021/09/24 04:29:20;;;;;;;0.90;0.90;;;;;;;17.01;100.00;-21143.38;6225874;22;20470;-74
2021/09/24 04:31:50;;;;;;;0.70;0.60;;;;;;;16.98;100.00;-21142.56;6250979;22;20420;-73
2021/09/24 04:34:17;;;;;;;2.60;2.40;;;;;;;17.04;100.00;-21144.19;6225717;22;20406;-74
2021/09/24 04:36:44;;;;;;;1.00;1.00;;;;;;;17.08;100.00;-21145.44;6225906;22;20422;-73
2021/09/24 04:39:11;;;;;;;0.70;0.70;;;;;;;17.07;100.00;-21145.03;6249815;22;20487;-75
2021/09/24 04:41:39;;;;;;;0.70;0.70;;;;;;;17.08;100.00;-21145.28;6250165;22;20854;-74
2021/09/24 04:44:07;;;;;;;0.70;0.60;;;;;;;17.08;100.00;-21145.44;6250387;22;20447;-74
2021/09/24 04:46:34;;;;;;;0.70;0.70;;;;;;;17.08;100.00;-21145.28;6250523;22;20786;-74
2021/09/24 04:49:03;;;;;;;0.70;0.63;;;;;;;17.02;100.00;-21143.66;6251090;22;20394;-74
2021/09/24 04:51:31;;;;;;;0.70;0.60;;;;;;;16.92;100.00;-21141.03;6225166;22;20807;-74
2021/09/24 04:54:00;;;;;;;0.70;0.70;;;;;;;16.95;100.00;-21141.72;6251536;22;20489;-74
2021/09/24 04:56:27;;;;;;;0.93;0.90;;;;;;;16.96;100.00;-21142.13;6276134;22;20419;-74
2021/09/24 04:58:55;;;;;;;1.13;1.00;;;;;;;16.96;100.00;-21142.13;6276770;22;20410;-74
2021/09/24 05:01:23;;;;;;;1.13;1.03;;;;;;;16.98;100.00;-21142.56;6250996;22;20905;-74
2021/09/24 05:03:50;;;;;;;0.70;0.70;;;;;;;17.04;100.00;-21144.19;6251359;22;20485;-74
2021/09/24 05:06:23;;;;;;;0.80;0.80;;;;;;;16.99;100.00;-21142.81;6250546;22;20414;-74
2021/09/24 05:08:52;;;;;;;0.70;0.60;;;;;;;16.96;100.00;-21142.13;6225277;22;20439;-74
2021/09/24 05:11:22;;;;;;;0.70;0.60;;;;;;;16.94;100.00;-21141.59;6250322;22;20417;-74
2021/09/24 05:13:53;;;;;;;0.70;0.60;;;;;;;16.92;100.00;-21140.91;6250990;22;20405;-75
2021/09/24 05:16:27;;;;;;;1.67;1.17;;;;;;;17.03;100.00;-21144.06;6250050;22;20470;-74
2021/09/24 05:19:08;;;;;;;0.70;0.60;;;;;;;17.07;100.00;-21145.16;6248320;22;20784;-74
2021/09/24 05:21:37;;;;;;;1.23;1.03;;;;;;;16.89;100.00;-21140.34;6250713;22;20393;-74
2021/09/24 05:24:04;;;;;;;0.70;0.60;;;;;;;16.98;100.00;-21142.56;6250621;22;20427;-74
2021/09/24 05:26:31;;;;;;;1.27;1.17;;;;;;;16.94;100.00;-21141.59;6224790;22;20411;-74
2021/09/24 05:28:58;;;;;;;0.70;0.60;;;;;;;16.99;100.00;-21142.81;6277555;22;20396;-74
2021/09/24 05:31:27;;;;;;;0.70;0.60;;;;;;;17.01;100.00;-21143.50;6276872;22;20397;-74
2021/09/24 05:33:56;;;;;;;0.70;0.60;;;;;;;16.98;100.00;-21142.56;6248924;22;20410;-74
2021/09/24 05:36:24;;;;;;;0.70;0.70;;;;;;;17.04;100.00;-21144.19;6250545;22;20431;-74
2021/09/24 05:38:52;;;;;;;1.27;1.17;;;;;;;17.06;100.00;-21144.75;6249958;22;20414;-74
2021/09/24 05:41:21;;;;;;;0.70;0.60;;;;;;;17.08;100.00;-21145.28;6250129;22;20823;-74
2021/09/24 05:43:50;;;;;;;0.70;0.60;;;;;;;17.18;100.00;-21147.91;6249870;22;20385;-73
2021/09/24 05:46:17;;;;;;;0.70;0.70;;;;;;;17.07;100.00;-21145.03;6250185;22;20404;-74
2021/09/24 05:48:44;;;;;;;1.20;1.10;;;;;;;17.18;100.00;-21148.03;6250694;22;20378;-74
2021/09/24 05:51:11;;;;;;;0.80;0.80;;;;;;;17.10;100.00;-21145.97;6224154;22;20408;-73
2021/09/24 05:53:38;;;;;;;0.83;0.80;;;;;;;17.10;100.00;-21145.84;6224771;22;20479;-74
2021/09/24 05:56:06;;;;;;;0.70;0.60;;;;;;;17.08;100.00;-21145.44;6249358;22;20457;-73
2021/09/24 05:58:35;;;;;;;0.70;0.60;;;;;;;17.18;100.00;-21148.03;6278205;22;20374;-74
2021/09/24 06:01:03;;;;;;;1.43;1.33;;;;;;;17.15;100.00;-21147.22;6225114;22;20442;-73
2021/09/24 06:03:32;;;;;;;0.80;0.80;;;;;;;17.18;100.00;-21148.03;6250770;22;20473;-73
2021/09/24 06:06:00;;;;;;;0.70;0.70;;;;;;;17.33;100.00;-21152.16;6276632;22;20419;-73
2021/09/24 06:08:28;;;;;;;1.00;0.80;;;;;;;17.22;100.00;-21149.13;6251002;22;20521;-74
2021/09/24 06:10:55;;;;;;;1.37;0.80;;;;;;;17.32;100.00;-21151.88;6249460;22;20731;-73
2021/09/24 06:13:23;;;;;;;0.90;0.90;;;;;;;17.28;100.00;-21150.66;6226060;22;20408;-75
2021/09/24 06:15:51;;;;;;;1.23;1.13;;;;;;;17.20;100.00;-21148.59;6279219;22;20390;-74
2021/09/24 06:18:18;;;;;;;1.20;1.10;;;;;;;17.13;100.00;-21146.66;6250325;22;20473;-73
2021/09/24 06:20:45;;;;;;;0.70;0.60;;;;;;;17.19;100.00;-21148.31;6276730;22;20414;-74
2021/09/24 06:23:12;;;;;;;0.70;0.70;;;;;;;17.25;100.00;-21149.97;6278221;22;20453;-74
2021/09/24 06:25:39;;;;;;;1.13;1.10;;;;;;;17.34;100.00;-21152.44;6277619;22;20397;-73
2021/09/24 06:28:06;;;;;;;1.43;1.10;;;;;;;17.24;100.00;-21149.53;6224625;22;20415;-74
2021/09/24 06:30:35;;;;;;;1.27;1.17;;;;;;;17.15;100.00;-21147.22;6277225;22;20723;-73
2021/09/24 06:33:03;;;;;;;0.70;0.70;;;;;;;17.26;100.00;-21150.22;6250868;22;20400;-73
2021/09/24 06:35:30;;;;;;;0.70;0.60;;;;;;;17.32;100.00;-21151.88;6250323;22;20413;-74
2021/09/24 06:37:57;;;;;;;0.70;0.60;;;;;;;17.40;100.00;-21153.94;6225573;22;20466;-73
2021/09/24 06:40:24;;;;;;;1.20;1.10;;;;;;;17.50;100.00;-21156.53;6251102;22;20397;-73
2021/09/24 06:42:51;;;;;;;0.70;0.60;;;;;;;17.62;100.00;-21159.81;6250802;22;20725;-73
2021/09/24 06:45:19;;;;;;;1.17;1.07;;;;;;;17.60;100.00;-21159.28;6248990;22;20479;-74
2021/09/24 06:47:49;;;;;;;0.90;0.77;;;;;;;17.59;100.00;-21159.00;6277154;22;20472;-73
2021/09/24 06:50:22;;;;;;;0.70;0.70;;;;;;;17.57;100.00;-21158.47;6251439;22;20391;-73
2021/09/24 06:52:53;;;;;;;0.70;0.60;;;;;;;17.59;100.00;-21159.13;6252646;22;20423;-73
2021/09/24 06:55:26;;;;;;;0.70;0.60;;;;;;;17.69;100.00;-21161.75;6251970;22;20387;-73
2021/09/24 06:57:59;;;;;;;1.20;0.80;;;;;;;17.72;100.00;-21162.44;6251048;22;20506;-74
2021/09/24 07:00:29;;;;;;;0.80;0.70;;;;;;;17.74;100.00;-21163.13;6249561;22;20758;-74
2021/09/24 07:03:10;;;;;;;0.70;0.60;;;;;;;17.68;100.00;-21161.34;6251584;22;20688;-74
2021/09/24 07:05:40;;;;;;;0.70;0.70;;;;;;;17.86;100.00;-21166.41;6275432;22;20767;-74
2021/09/24 07:08:11;;;;;;;1.97;1.57;;;;;;;17.75;100.00;-21163.41;6276860;22;20399;-74
2021/09/24 07:10:39;;;;;;;0.70;0.70;;;;;;;17.92;100.00;-21167.78;6249806;22;20776;-74
2021/09/24 07:13:08;;;;;;;0.70;0.70;;;;;;;17.70;100.00;-21162.03;6248469;22;20418;-75
2021/09/24 07:15:36;;;;;;;0.90;0.80;;;;;;;17.83;100.00;-21165.59;6249168;22;20426;-74
2021/09/24 07:18:05;;;;;;;0.70;0.70;;;;;;;17.90;100.00;-21167.38;6224214;22;20456;-74
2021/09/24 07:20:32;;;;;;;0.80;0.80;;;;;;;18.11;100.00;-21173.00;6247557;22;20411;-73
2021/09/24 07:23:17;;;;;;;0.70;0.70;;;;;;;17.95;100.00;-21168.75;6228416;22;20515;-74
2021/09/24 07:25:44;;;;;;;0.77;0.73;;;;;;;18.23;100.00;-21176.28;6249033;22;20386;-73
2021/09/24 07:28:13;;;;;;;1.27;1.10;;;;;;;18.03;100.00;-21170.78;6223497;22;20401;-74
2021/09/24 07:30:45;;;;;;;0.70;0.70;;;;;;;18.15;100.00;-21174.09;6249308;22;20410;-73
2021/09/24 07:33:13;;;;;;;1.07;0.97;;;;;;;18.20;100.00;-21175.47;6250596;22;20444;-73
2021/09/24 07:35:41;;;;;;;1.20;1.10;;;;;;;18.07;100.00;-21171.88;6278717;22;20388;-75
2021/09/24 07:38:08;;;;;;;0.70;0.60;;;;;;;18.20;100.00;-21175.47;6250126;22;20473;-74
2021/09/24 07:40:35;;;;;;;0.77;0.77;;;;;;;18.23;100.00;-21176.28;6250892;22;20891;-74
2021/09/24 07:43:01;;;;;;;1.13;1.07;;;;;;;18.53;100.00;-21184.22;6250688;22;20446;-74
2021/09/24 07:45:31;;;;;;;0.83;0.83;;;;;;;18.63;100.00;-21186.97;6278363;22;20878;-74
2021/09/24 07:47:58;;;;;;;0.70;0.70;;;;;;;18.78;100.00;-21191.06;6278615;22;20443;-74
2021/09/24 07:50:28;;;;;;;0.70;0.60;;;;;;;18.63;100.00;-21186.81;6278629;22;20812;-72
2021/09/24 07:52:55;;;;;;;1.37;1.27;;;;;;;18.67;100.00;-21188.06;6225939;22;20422;-74
2021/09/24 07:55:22;;;;;;;0.90;0.80;;;;;;;18.90;100.00;-21194.06;6250198;22;20387;-74
2021/09/24 07:57:55;;;;;;;0.70;0.63;;;;;;;18.81;100.00;-21191.88;6277431;22;20456;-74
2021/09/24 08:00:24;;;;;;;0.70;0.70;;;;;;;19.03;100.00;-21197.78;6251330;22;20391;-73
2021/09/24 08:02:51;;;;;;;0.80;0.80;;;;;;;18.95;100.00;-21195.44;6251107;22;20497;-74
2021/09/24 08:05:18;;;;;;;1.13;1.03;;;;;;;19.20;100.00;-21202.16;6276961;22;20386;-73
2021/09/24 08:07:46;;;;;;;0.80;0.80;;;;;;;19.30;100.00;-21205.03;6250761;22;20923;-74
2021/09/24 08:10:13;;;;;;;0.77;0.70;;;;;;;19.38;100.00;-21207.06;6251372;22;20379;-73
2021/09/24 08:12:40;;;;;;;1.30;0.77;;;;;;;19.54;100.00;-21211.31;6277312;22;20851;-74
2021/09/24 08:15:14;;;;;;;0.80;0.70;;;;;;;19.33;100.00;-21205.56;6277402;22;20403;-73
2021/09/24 08:17:41;;;;;;;1.27;1.17;;;;;;;19.05;100.00;-21198.19;6250365;22;20934;-74
2021/09/24 08:20:10;;;;;;;0.70;0.63;;;;;;;18.97;100.00;-21196.00;6251172;22;20372;-74
2021/09/24 08:22:38;;;;;;;0.80;0.80;;;;;;;19.13;100.00;-21200.38;6251111;22;20407;-74
2021/09/24 08:25:09;;;;;;;0.80;0.73;;;;;;;19.23;100.00;-21203.09;6278121;22;20890;-74
2021/09/24 08:27:40;;;;;;;0.90;0.80;;;;;;;19.26;100.00;-21203.94;6251025;22;20368;-75
2021/09/24 08:30:11;;;;;;;1.47;1.00;;;;;;;19.31;100.00;-21205.28;6250516;22;20406;-74
2021/09/24 08:32:41;;;;;;;0.80;0.80;;;;;;;19.45;100.00;-21209.00;6277926;22;20363;-73
2021/09/24 08:35:10;;;;;;;0.70;0.70;;;;;;;19.34;100.00;-21205.84;6250340;22;20387;-74
2021/09/24 08:37:42;;;;;;;0.90;0.87;;;;;;;19.54;100.00;-21211.31;6277817;22;20433;-73
2021/09/24 08:40:12;;;;;;;0.70;0.60;;;;;;;19.41;100.00;-21207.75;6250431;22;20474;-74
2021/09/24 08:42:40;;;;;;;0.70;0.70;;;;;;;19.30;100.00;-21205.03;6250427;22;20395;-73
2021/09/24 08:45:10;;;;;;;2.20;2.10;;;;;;;19.27;100.00;-21204.19;6277662;22;20342;-73
2021/09/24 08:47:39;;;;;;;0.73;0.67;;;;;;;19.66;100.00;-21214.47;6250894;22;20475;-73
2021/09/24 08:50:09;;;;;;;0.77;0.70;;;;;;;19.75;100.00;-21216.91;6277830;22;20417;-74
2021/09/24 08:52:38;;;;;;;1.00;0.90;;;;;;;20.03;100.00;-21224.44;6251278;22;20399;-74
2021/09/24 08:55:08;;;;;;;0.90;0.80;;;;;;;19.93;100.00;-21221.69;6249876;22;20802;-73
2021/09/24 08:57:40;;;;;;;1.27;0.70;;;;;;;20.11;100.00;-21226.50;6251661;22;20422;-75
2021/09/24 09:00:08;;;;;;;0.80;0.70;;;;;;;19.79;100.00;-21218.16;6277907;22;20375;-73
2021/09/24 09:02:51;;;;;;;0.80;0.80;;;;;;;19.69;100.00;-21215.41;6251927;22;20368;-74
2021/09/24 09:05:21;;;;;;;0.80;0.80;;;;;;;19.75;100.00;-21217.06;6277182;22;20371;-74
2021/09/24 09:07:49;;;;;;;0.73;0.60;;;;;;;19.61;100.00;-21213.22;6277326;22;20399;-74
2021/09/24 09:10:17;;;;;;;0.70;0.60;;;;;;;19.81;100.00;-21218.41;6224809;22;20906;-73
2021/09/24 09:12:46;;;;;;;1.03;0.90;;;;;;;20.33;100.00;-21232.34;6225677;22;20410;-74
2021/09/24 09:15:15;;;;;;;0.77;0.67;;;;;;;20.84;100.00;-21246.00;6277514;22;20371;-74
2021/09/24 09:17:47;;;;;;;1.17;1.07;;;;;;;22.15;100.00;-21281.19;6250500;22;20488;-74
2021/09/24 09:20:18;;;;;;;0.80;0.67;;;;;;;22.75;100.00;-21297.13;6277154;22;20399;-74
2021/09/24 09:22:47;;;;;;;1.50;1.13;;;;;;;22.45;100.00;-21289.09;6277395;22;20764;-74
2021/09/24 09:25:23;;;;;;;0.80;0.70;;;;;;;21.81;100.00;-21272.06;6277102;22;20378;-73
2021/09/24 09:27:53;;;;;;;0.70;0.60;;;;;;;21.92;100.00;-21274.94;6277934;22;20832;-74
2021/09/24 09:30:20;;;;;;;0.80;0.70;;;;;;;22.20;100.00;-21282.41;6277253;22;20375;-73
2021/09/24 09:33:02;;;;;;;0.80;0.70;;;;;;;22.74;100.00;-21296.72;6277052;22;20342;-74
2021/09/24 09:35:37;;;;;;;1.53;1.43;;;;;;;22.93;100.00;-21301.75;6276214;22;20371;-73
2021/09/24 09:38:05;;;;;;;0.70;0.60;;;;;;;22.91;100.00;-21301.34;6277377;22;20430;-74
2021/09/24 09:40:32;;;;;;;0.97;0.87;;;;;;;23.44;100.00;-21315.34;6276683;22;20462;-73
2021/09/24 09:43:01;;;;;;;1.10;1.00;;;;;;;23.51;100.00;-21317.41;6276436;22;20387;-74
2021/09/24 09:45:31;;;;;;;0.83;0.77;;;;;;;23.39;100.00;-21314.13;6225054;22;20395;-73
2021/09/24 09:47:58;;;;;;;1.47;0.80;;;;;;;23.29;100.00;-21311.53;6250115;22;20395;-74
2021/09/24 09:50:26;;;;;;;0.80;0.70;;;;;;;23.48;100.00;-21316.56;6277365;22;20437;-74
2021/09/24 09:52:56;;;;;;;1.00;0.80;;;;;;;23.76;100.00;-21323.91;6276289;22;20409;-74
2021/09/24 09:55:26;;;;;;;0.80;0.67;;;;;;;23.05;100.00;-21305.16;6249914;22;20478;-72
2021/09/24 09:57:59;;;;;;;0.77;0.60;;;;;;;22.66;100.00;-21294.81;6277072;22;20407;-72
2021/09/24 10:00:28;;;;;;;1.43;0.80;;;;;;;23.04;100.00;-21304.75;6276697;22;20381;-73
2021/09/24 10:03:07;;;;;;;0.70;0.50;;;;;;;24.62;100.00;-21346.88;6248673;22;20395;-72
2021/09/24 10:05:38;;;;;;;0.77;0.60;;;;;;;25.14;100.00;-21360.72;6249337;22;20414;-73
2021/09/24 10:08:20;;;;;;;0.70;0.50;;;;;;;24.52;100.00;-21344.31;6249747;22;20820;-72
2021/09/24 10:10:55;;;;;;;0.90;0.90;;;;;;;25.33;100.00;-21365.72;6278552;22;20397;-73
2021/09/24 10:13:23;;;;;;;0.70;0.60;;;;;;;24.84;100.00;-21352.72;6250781;22;20401;-70
2021/09/24 10:15:51;;;;;;;0.70;0.60;;;;;;;24.92;100.00;-21354.88;6250457;22;20469;-71
2021/09/24 10:18:19;;;;;;;0.70;0.60;;;;;;;24.20;100.00;-21335.75;6250770;22;20780;-71
2021/09/24 10:20:46;;;;;;;0.70;0.50;;;;;;;24.67;100.00;-21348.22;6276362;22;20884;-72
2021/09/24 10:23:14;;;;;;;0.70;0.50;;;;;;;23.97;100.00;-21329.50;6277540;22;20403;-72
2021/09/24 10:25:44;;;;;;;0.70;0.60;;;;;;;23.33;100.00;-21312.63;6277602;22;20697;-73
2021/09/24 10:28:12;;;;;;;0.80;0.67;;;;;;;22.96;100.00;-21302.72;6250799;22;20425;-74
2021/09/24 10:30:40;;;;;;;0.80;0.70;;;;;;;23.52;100.00;-21317.66;6276820;22;20383;-73
2021/09/24 10:33:13;;;;;;;0.77;0.70;;;;;;;23.38;100.00;-21314.00;6250320;22;20371;-73
2021/09/24 10:35:49;;;;;;;0.97;0.87;;;;;;;22.76;100.00;-21297.41;6250149;22;20402;-73
2021/09/24 10:38:18;;;;;;;0.70;0.60;;;;;;;22.43;100.00;-21288.56;6250965;22;20441;-72
2021/09/24 10:40:54;;;;;;;0.77;0.60;;;;;;;22.47;100.00;-21289.50;6277534;22;20383;-72
2021/09/24 10:43:23;;;;;;;0.70;0.60;;;;;;;22.97;100.00;-21302.97;6278711;22;20371;-73
2021/09/24 10:45:50;;;;;;;0.70;0.60;;;;;;;23.38;100.00;-21314.00;6278368;22;20383;-74
2021/09/24 10:48:21;;;;;;;0.80;0.60;;;;;;;23.27;100.00;-21310.88;6250870;22;20391;-73
2021/09/24 10:50:54;;;;;;;0.80;0.80;;;;;;;22.48;100.00;-21289.91;6277728;22;20406;-73
2021/09/24 10:53:23;;;;;;;1.57;1.47;;;;;;;22.88;100.00;-21300.53;6250939;22;20485;-74
2021/09/24 10:56:32;;;;;;;0.80;0.70;;;;;;;22.69;100.00;-21295.34;6250038;22;20395;-74
2021/09/24 10:59:20;;;;;;;0.93;0.90;;;;;;;22.03;100.00;-21277.91;6196611;22;20446;-72
2021/09/24 11:01:48;;;;;;;0.80;0.63;;;;;;;22.30;100.00;-21285.16;6225856;22;20402;-73
2021/09/24 11:04:18;;;;;;;0.80;0.67;;;;;;;22.15;100.00;-21281.19;6277524;22;20371;-73
2021/09/24 11:06:48;;;;;;;0.80;0.70;;;;;;;22.41;100.00;-21288.00;6277795;22;20342;-74
2021/09/24 11:09:21;;;;;;;0.80;0.70;;;;;;;22.21;100.00;-21282.56;6277417;22;20365;-73
2021/09/24 11:11:51;;;;;;;0.90;0.83;;;;;;;22.09;100.00;-21279.56;6276903;22;20682;-74
2021/09/24 11:14:30;;;;;;;0.70;0.60;;;;;;;21.75;100.00;-21270.28;6277112;22;20791;-74
2021/09/24 11:17:00;;;;;;;0.80;0.70;;;;;;;21.71;100.00;-21269.34;6248711;22;20397;-73
2021/09/24 11:19:40;;;;;;;0.80;0.77;;;;;;;21.89;100.00;-21274.09;6276949;22;20429;-73
2021/09/24 11:22:20;;;;;;;0.80;0.60;;;;;;;22.12;100.00;-21280.25;6277691;22;20371;-74
2021/09/24 11:25:04;;;;;;;0.80;0.63;;;;;;;22.25;100.00;-21283.66;6249594;22;20404;-73
2021/09/24 11:27:35;;;;;;;0.70;0.60;;;;;;;22.85;100.00;-21299.72;6277667;22;20379;-72
2021/09/24 11:30:18;;;;;;;0.70;0.60;;;;;;;23.43;100.00;-21315.09;6276886;22;20342;-73
2021/09/24 11:32:48;;;;;;;0.80;0.73;;;;;;;23.84;100.00;-21326.22;6277447;22;20367;-72
2021/09/24 11:35:20;;;;;;;0.80;0.70;;;;;;;23.70;100.00;-21322.28;6250601;22;20397;-73